Time;durP1;ratioP1;P1;durP2;ratioP2;P2;SDS_P1;SDS_P2;PMS_P1;PMS_P2;Temp;Humidity;BMP_temperature;BMP_pressure;BME280_temperature;BME280_humidity;BME280_pressure;Samples;Min_cycle;Max_cycle;Signal;HPM_P1;HPM_P2
2022/01/11 00:00:43;;;;;;;112.57;35.68;;;;;;;-5.15;84.56;102500.05;1732940;81;25777;-71
2022/01/11 00:03:11;;;;;;;105.57;34.30;;;;;;;-5.16;84.55;102506.10;1732611;81;26030;-70
2022/01/11 00:05:54;;;;;;;95.72;34.10;;;;;;;-5.18;84.53;102503.82;1730647;81;99203;-68
2022/01/11 00:08:17;;;;;;;107.22;34.03;;;;;;;-5.21;84.53;102505.91;1732250;81;25735;-68
2022/01/11 00:10:50;;;;;;;113.37;37.35;;;;;;;-5.21;84.60;102501.98;1737238;81;99162;-68
2022/01/11 00:13:18;;;;;;;113.80;35.68;;;;;;;-5.21;84.61;102505.01;1732868;82;27175;-68
2022/01/11 00:15:46;;;;;;;107.40;34.58;;;;;;;-5.24;84.57;102518.41;1732370;81;99386;-68
2022/01/11 00:18:13;;;;;;;113.17;37.53;;;;;;;-5.27;84.55;102519.97;1731621;81;25775;-69
2022/01/11 00:20:39;;;;;;;94.97;33.63;;;;;;;-5.29;84.62;102515.97;1730739;81;25838;-68
2022/01/11 00:25:40;;;;;;;103.17;35.65;;;;;;;-5.30;84.59;102521.13;1734519;81;26428;-69
2022/01/11 00:28:09;;;;;;;122.53;37.25;;;;;;;-5.32;84.59;102518.43;1730604;82;99452;-68
2022/01/11 00:30:39;;;;;;;111.47;36.60;;;;;;;-5.31;84.63;102523.25;1741424;80;26341;-68
2022/01/11 00:33:11;;;;;;;101.12;33.48;;;;;;;-5.32;84.64;102527.98;1740945;81;25819;-70
2022/01/11 00:35:41;;;;;;;116.12;37.08;;;;;;;-5.33;84.61;102530.11;1739467;80;99204;-70
2022/01/11 00:38:19;;;;;;;110.28;35.10;;;;;;;-5.35;84.64;102530.03;1706627;82;26346;-69
2022/01/11 00:40:50;;;;;;;105.97;34.20;;;;;;;-5.34;84.67;102533.55;1741517;80;99312;-69
2022/01/11 00:43:18;;;;;;;125.80;37.60;;;;;;;-5.36;84.64;102530.85;1742073;80;25761;-69
2022/01/11 00:45:46;;;;;;;101.82;33.60;;;;;;;-5.38;84.66;102532.49;1741300;80;99362;-69
2022/01/11 00:48:14;;;;;;;118.90;37.88;;;;;;;-5.37;84.68;102534.69;1742493;80;27543;-68
2022/01/11 00:50:40;;;;;;;112.17;36.90;;;;;;;-5.38;84.67;102531.59;1742331;81;25743;-69
2022/01/11 00:53:07;;;;;;;108.72;37.28;;;;;;;-5.39;84.64;102535.02;1740343;80;99151;-68
2022/01/11 00:55:34;;;;;;;113.90;36.05;;;;;;;-5.45;84.68;102517.31;1708622;82;25811;-68
2022/01/11 00:58:05;;;;;;;120.62;36.88;;;;;;;-5.41;84.67;102532.74;1741849;80;99426;-69
2022/01/11 01:00:35;;;;;;;108.03;36.63;;;;;;;-5.41;84.69;102530.12;1741752;81;27973;-70
2022/01/11 01:03:01;;;;;;;113.85;36.03;;;;;;;-5.43;84.69;102526.54;1739946;80;25740;-69
2022/01/11 01:05:29;;;;;;;110.12;36.38;;;;;;;-5.44;84.72;102522.13;1741414;81;99371;-68
2022/01/11 01:07:55;;;;;;;111.25;36.30;;;;;;;-5.45;84.72;102525.56;1742122;80;26517;-69
2022/01/11 01:10:35;;;;;;;112.28;38.23;;;;;;;-5.47;84.72;102524.59;1703804;82;99275;-69
2022/01/11 01:12:59;;;;;;;119.33;38.78;;;;;;;-5.46;84.76;102534.22;1740815;81;27332;-70
2022/01/11 01:15:28;;;;;;;118.37;40.12;;;;;;;-5.48;84.74;102531.94;1742134;81;26256;-69
2022/01/11 01:17:56;;;;;;;114.65;36.60;;;;;;;-5.48;84.76;102537.16;1706979;82;98985;-70
2022/01/11 01:20:24;;;;;;;118.35;36.73;;;;;;;-5.50;84.72;102530.55;1708593;82;26608;-69
2022/01/11 01:22:52;;;;;;;102.55;33.05;;;;;;;-5.50;84.75;102540.11;1738032;82;99613;-68
2022/01/11 01:25:23;;;;;;;116.82;35.95;;;;;;;-5.51;84.75;102539.61;1743157;81;27423;-69
2022/01/11 01:27:52;;;;;;;107.35;38.38;;;;;;;-5.52;84.73;102547.86;1734431;81;99961;-68
2022/01/11 01:30:21;;;;;;;120.05;38.60;;;;;;;-5.54;84.75;102539.05;1728525;80;25976;-68
2022/01/11 01:32:52;;;;;;;122.67;38.05;;;;;;;-5.53;84.76;102541.25;1730713;81;25801;-70
2022/01/11 01:35:23;;;;;;;109.95;37.53;;;;;;;-5.55;84.75;102542.48;1722314;81;99305;-69
2022/01/11 01:37:49;;;;;;;121.22;40.08;;;;;;;-5.57;84.73;102546.31;1721427;80;27383;-69
2022/01/11 01:40:18;;;;;;;121.47;38.83;;;;;;;-5.61;84.73;102543.05;1721675;81;99442;-70
2022/01/11 01:42:47;;;;;;;118.30;36.88;;;;;;;-5.63;84.77;102539.47;1728512;81;25823;-69
2022/01/11 01:45:15;;;;;;;119.93;38.40;;;;;;;-5.64;84.73;102544.61;1723944;81;26414;-70
2022/01/11 01:47:43;;;;;;;118.15;39.40;;;;;;;-5.67;84.74;102553.18;1731996;81;99351;-68
2022/01/11 01:50:12;;;;;;;119.37;39.50;;;;;;;-5.69;84.72;102545.67;1728007;80;27576;-68
2022/01/11 01:52:38;;;;;;;126.35;42.27;;;;;;;-5.70;84.78;102546.48;1725949;81;99191;-69
2022/01/11 01:55:07;;;;;;;119.97;40.40;;;;;;;-5.70;84.78;102548.20;1720877;81;25930;-69
2022/01/11 01:57:35;;;;;;;136.15;40.92;;;;;;;-5.73;84.72;102545.02;1724155;80;25837;-69
2022/01/11 02:00:11;;;;;;;115.08;38.98;;;;;;;-5.74;84.77;102551.06;1719838;82;99143;-69
2022/01/11 02:02:32;;;;;;;115.80;40.65;;;;;;;-5.77;84.70;102551.30;1720366;80;28581;-69
2022/01/11 02:05:05;;;;;;;121.30;42.25;;;;;;;-5.80;84.71;102551.14;1735213;80;98483;-70
2022/01/11 02:07:37;;;;;;;127.27;40.73;;;;;;;-5.82;84.74;102552.77;1726734;80;25724;-68
2022/01/11 02:10:09;;;;;;;130.40;39.50;;;;;;;-5.83;84.80;102553.19;1722056;81;99498;-68
2022/01/11 02:12:37;;;;;;;123.50;37.75;;;;;;;-5.83;84.78;102562.33;1732065;81;25776;-71
2022/01/11 02:15:04;;;;;;;131.52;41.10;;;;;;;-5.85;84.79;102553.51;1739376;81;27433;-69
2022/01/11 02:17:33;;;;;;;132.75;40.85;;;;;;;-5.83;84.86;102553.59;1720627;81;99292;-69
2022/01/11 02:20:01;;;;;;;126.30;41.30;;;;;;;-5.83;84.82;102562.33;1714301;81;25756;-68
2022/01/11 02:22:29;;;;;;;130.53;39.40;;;;;;;-5.84;84.85;102559.63;1712972;81;99791;-69
2022/01/11 02:24:56;;;;;;;134.80;43.65;;;;;;;-5.83;84.87;102567.55;1712466;82;25795;-69
2022/01/11 02:27:27;;;;;;;137.95;41.92;;;;;;;-5.81;84.88;102575.46;1713548;81;27659;-69
2022/01/11 02:29:55;;;;;;;133.35;42.05;;;;;;;-5.82;84.88;102579.78;1723699;81;99349;-69
2022/01/11 02:32:22;;;;;;;126.60;39.83;;;;;;;-5.83;84.88;102581.91;1724638;81;25697;-69
2022/01/11 02:34:49;;;;;;;139.88;42.10;;;;;;;-5.84;84.89;102578.80;1689132;83;99356;-70
2022/01/11 02:37:19;;;;;;;136.85;43.92;;;;;;;-5.84;84.88;102578.80;1722371;81;25780;-70
2022/01/11 02:39:47;;;;;;;136.88;44.77;;;;;;;-5.84;84.87;102579.21;1687963;83;27491;-68
2022/01/11 02:42:14;;;;;;;129.63;42.55;;;;;;;-5.87;84.89;102573.42;1720994;81;99131;-69
2022/01/11 02:44:42;;;;;;;143.22;45.17;;;;;;;-5.86;84.89;102576.52;1724098;82;30771;-70
2022/01/11 02:47:09;;;;;;;126.27;42.03;;;;;;;-5.85;84.91;102577.02;1720229;82;99128;-69
2022/01/11 02:49:35;;;;;;;114.15;38.13;;;;;;;-5.86;84.92;102578.23;1725122;81;25663;-69
2022/01/11 02:52:01;;;;;;;149.70;44.73;;;;;;;-5.87;84.90;102591.70;1719999;81;99407;-70
2022/01/11 02:54:27;;;;;;;121.50;41.63;;;;;;;-5.89;84.89;102589.00;1720815;81;25729;-69
2022/01/11 02:56:54;;;;;;;142.77;41.28;;;;;;;-5.89;84.92;102590.30;1720073;82;25762;-70
2022/01/11 02:59:20;;;;;;;121.60;40.90;;;;;;;-5.89;84.93;102591.61;1721512;81;99661;-69
2022/01/11 03:01:47;;;;;;;136.97;42.60;;;;;;;-5.89;84.95;102583.78;1721838;81;33040;-70
2022/01/11 03:04:14;;;;;;;122.02;39.38;;;;;;;-5.90;84.92;102585.03;1720053;81;99343;-70
2022/01/11 03:06:43;;;;;;;120.47;38.98;;;;;;;-5.90;84.91;102586.34;1719717;81;25843;-69
2022/01/11 03:09:11;;;;;;;124.35;42.38;;;;;;;-5.93;84.87;102584.88;1715945;81;25722;-69
2022/01/11 03:11:37;;;;;;;119.02;37.83;;;;;;;-5.94;84.94;102593.52;1722660;82;99562;-68
2022/01/11 03:14:04;;;;;;;130.45;41.45;;;;;;;-5.95;84.91;102591.31;1722325;81;33316;-69
2022/01/11 03:16:32;;;;;;;132.47;42.93;;;;;;;-5.96;84.90;102593.84;1718657;82;99472;-69
2022/01/11 03:18:59;;;;;;;132.87;41.48;;;;;;;-5.98;84.92;102591.14;1719754;81;34314;-69
2022/01/11 03:21:28;;;;;;;134.87;43.15;;;;;;;-5.98;84.95;102588.53;1689950;84;25738;-70
2022/01/11 03:23:53;;;;;;;128.90;41.05;;;;;;;-5.99;84.95;102585.44;1725595;81;99330;-69
2022/01/11 03:26:19;;;;;;;130.18;41.90;;;;;;;-5.98;84.95;102587.64;1728200;81;25827;-68
2022/01/11 03:28:47;;;;;;;129.07;40.90;;;;;;;-5.97;84.97;102590.73;1689606;82;99337;-69
2022/01/11 03:31:15;;;;;;;135.48;40.90;;;;;;;-5.98;84.96;102592.86;1725368;80;25737;-68
2022/01/11 03:33:41;;;;;;;131.07;43.33;;;;;;;-6.00;84.98;102589.27;1694252;83;25732;-68
2022/01/11 03:36:07;;;;;;;132.55;42.70;;;;;;;-6.01;84.96;102592.28;1693354;81;99682;-68
2022/01/11 03:38:35;;;;;;;126.75;41.88;;;;;;;-6.02;84.95;102593.50;1695695;83;25781;-69
2022/01/11 03:41:03;;;;;;;142.80;44.00;;;;;;;-6.04;84.94;102605.17;1687178;82;99545;-68
2022/01/11 03:43:29;;;;;;;135.20;42.40;;;;;;;-6.05;84.93;102599.86;1685763;83;26208;-69
2022/01/11 03:45:57;;;;;;;115.57;39.45;;;;;;;-6.07;84.94;102597.58;1726478;80;99779;-68
2022/01/11 03:48:25;;;;;;;146.80;44.67;;;;;;;-6.08;84.95;102607.52;1692694;83;26581;-68
2022/01/11 03:50:55;;;;;;;117.65;41.70;;;;;;;-6.09;84.99;102605.73;1693893;83;33812;-68
2022/01/11 03:53:30;;;;;;;134.80;42.83;;;;;;;-6.09;84.99;102607.03;1731032;81;99398;-68
2022/01/11 03:56:21;;;;;;;138.10;41.65;;;;;;;-6.12;84.96;102597.32;1730167;81;26603;-69
2022/01/11 03:58:39;;;;;;;132.80;43.40;;;;;;;-6.14;84.95;102600.25;1731010;81;99185;-70
2022/01/11 04:01:06;;;;;;;136.97;45.33;;;;;;;-6.15;84.97;102604.98;1728058;80;26321;-68
2022/01/11 04:03:34;;;;;;;153.57;47.80;;;;;;;-6.16;84.99;102604.48;1726502;81;25731;-69
2022/01/11 04:06:02;;;;;;;139.57;46.48;;;;;;;-6.16;84.99;102609.71;1725299;81;99669;-68
2022/01/11 04:08:28;;;;;;;138.37;46.53;;;;;;;-6.18;85.00;102612.64;1730926;80;26086;-68
2022/01/11 04:10:56;;;;;;;137.22;45.50;;;;;;;-6.18;85.01;102615.66;1729351;80;99306;-69
2022/01/11 04:13:22;;;;;;;159.03;51.10;;;;;;;-6.19;85.04;102613.86;1695611;83;27801;-69
2022/01/11 04:15:49;;;;;;;153.38;55.17;;;;;;;-6.19;85.04;102619.08;1697121;83;25707;-69
2022/01/11 04:18:17;;;;;;;161.00;54.98;;;;;;;-6.21;85.02;102615.08;1691352;83;99508;-68
2022/01/11 04:20:42;;;;;;;161.05;52.23;;;;;;;-6.22;84.99;102619.80;1692977;83;26093;-69
2022/01/11 04:23:12;;;;;;;136.25;47.35;;;;;;;-6.22;85.02;102617.20;1707995;81;99441;-68
2022/01/11 04:25:39;;;;;;;134.22;44.73;;;;;;;-6.23;85.02;102621.52;1707234;82;26111;-70
2022/01/11 04:28:05;;;;;;;142.18;45.92;;;;;;;-6.25;85.00;102617.92;1702681;82;99927;-69
2022/01/11 04:30:31;;;;;;;143.97;47.10;;;;;;;-6.24;85.05;102621.43;1678919;83;27426;-68
2022/01/11 04:32:57;;;;;;;137.03;43.50;;;;;;;-6.24;85.07;102618.82;1704795;82;33650;-68
2022/01/11 04:35:24;;;;;;;144.77;45.23;;;;;;;-6.26;85.01;102617.43;1711037;81;99733;-68
2022/01/11 04:37:50;;;;;;;145.15;46.65;;;;;;;-6.28;84.99;102618.16;1687166;83;35377;-68
2022/01/11 04:40:17;;;;;;;135.50;46.35;;;;;;;-6.31;85.02;102625.41;1672932;83;99419;-69
2022/01/11 04:42:44;;;;;;;139.25;45.75;;;;;;;-6.32;85.03;102620.10;1690231;83;28090;-69
2022/01/11 04:45:14;;;;;;;150.35;45.43;;;;;;;-6.33;85.02;102615.70;1690003;83;25744;-68
2022/01/11 04:47:45;;;;;;;142.25;47.53;;;;;;;-6.36;85.00;102620.33;1688551;83;99609;-69
2022/01/11 04:50:12;;;;;;;133.00;43.60;;;;;;;-6.37;84.98;102621.15;1689598;83;27595;-68
2022/01/11 04:52:38;;;;;;;137.30;45.80;;;;;;;-6.38;85.01;102625.88;1695481;81;99717;-68
2022/01/11 04:55:08;;;;;;;147.50;45.90;;;;;;;-6.41;84.95;102626.10;1709542;82;27526;-68
2022/01/11 04:57:36;;;;;;;139.62;44.10;;;;;;;-6.47;84.93;102625.34;1720257;81;25827;-68
2022/01/11 05:00:05;;;;;;;141.57;44.30;;;;;;;-6.54;84.77;102633.63;1720713;81;99610;-68
2022/01/11 05:02:34;;;;;;;144.75;46.23;;;;;;;-6.54;84.77;102633.63;1720601;81;25860;-68
2022/01/11 05:05:02;;;;;;;144.65;48.75;;;;;;;-6.57;84.89;102626.53;1708276;82;99719;-67
2022/01/11 05:07:28;;;;;;;135.75;45.23;;;;;;;-6.59;84.94;102631.16;1720949;81;27394;-68
2022/01/11 05:09:54;;;;;;;145.22;46.37;;;;;;;-6.57;85.01;102634.77;1718086;81;99438;-68
2022/01/11 05:12:21;;;;;;;136.88;45.45;;;;;;;-6.58;85.01;102632.96;1720227;81;30702;-67
2022/01/11 05:14:46;;;;;;;140.03;45.70;;;;;;;-6.59;85.02;102628.55;1719798;81;26415;-68
2022/01/11 05:17:15;;;;;;;146.22;48.80;;;;;;;-6.58;85.05;102633.86;1706170;82;99168;-67
2022/01/11 05:19:41;;;;;;;145.05;46.90;;;;;;;-6.59;85.03;102634.67;1718863;81;27488;-70
2022/01/11 05:22:09;;;;;;;145.28;45.43;;;;;;;-6.60;85.04;102643.30;1719304;81;99864;-68
2022/01/11 05:24:36;;;;;;;135.20;42.88;;;;;;;-6.60;85.07;102641.10;1718209;81;25833;-70
2022/01/11 05:27:03;;;;;;;132.72;43.33;;;;;;;-6.58;85.09;102642.09;1716385;81;25824;-68
2022/01/11 05:29:31;;;;;;;142.60;47.58;;;;;;;-6.58;85.09;102637.77;1720858;81;99147;-67
2022/01/11 05:31:58;;;;;;;142.32;47.27;;;;;;;-6.58;85.11;102641.69;1717282;81;27496;-68
2022/01/11 05:34:26;;;;;;;136.12;46.75;;;;;;;-6.58;85.11;102642.98;1709032;82;99774;-68
2022/01/11 05:36:52;;;;;;;145.57;47.83;;;;;;;-6.56;85.11;102642.67;1689622;83;26225;-68
2022/01/11 05:39:18;;;;;;;145.80;48.23;;;;;;;-6.57;85.10;102638.67;1710628;82;26624;-67
2022/01/11 05:41:45;;;;;;;145.77;46.90;;;;;;;-6.57;85.10;102645.19;1687439;83;99582;-68
2022/01/11 05:44:13;;;;;;;145.85;47.15;;;;;;;-6.56;85.13;102650.91;1687952;83;28517;-68
2022/01/11 05:46:39;;;;;;;147.02;48.15;;;;;;;-6.55;85.12;102654.00;1711935;82;99549;-68
2022/01/11 05:49:06;;;;;;;138.28;48.25;;;;;;;-6.56;85.09;102654.41;1703510;82;25711;-68
2022/01/11 05:51:32;;;;;;;156.72;50.03;;;;;;;-6.56;85.11;102658.73;1720301;81;26259;-68
2022/01/11 05:54:02;;;;;;;144.70;45.95;;;;;;;-6.57;85.14;102655.22;1722110;81;99729;-67
2022/01/11 05:56:31;;;;;;;147.68;48.23;;;;;;;-6.61;85.15;102647.13;1702917;82;28618;-67
2022/01/11 05:58:57;;;;;;;145.45;48.42;;;;;;;-6.59;85.08;102665.07;1706124;82;99197;-67
2022/01/11 06:01:26;;;;;;;141.97;47.65;;;;;;;-6.60;85.07;102664.58;1703174;82;30450;-67
2022/01/11 06:03:54;;;;;;;144.55;48.92;;;;;;;-6.74;85.06;102638.09;1752788;80;26142;-67
2022/01/11 06:06:21;;;;;;;137.10;45.85;;;;;;;-6.63;85.12;102665.70;1754649;80;99175;-67
2022/01/11 06:08:48;;;;;;;155.57;48.80;;;;;;;-6.63;85.15;102670.91;1761565;80;27533;-67
2022/01/11 06:11:14;;;;;;;149.15;49.13;;;;;;;-6.63;85.14;102672.22;1750871;80;99260;-67
2022/01/11 06:13:41;;;;;;;141.45;48.92;;;;;;;-6.62;85.20;102677.93;1754536;80;30329;-69
2022/01/11 06:16:11;;;;;;;144.17;46.77;;;;;;;-6.62;85.14;102684.45;1755955;80;99875;-67
2022/01/11 06:18:38;;;;;;;148.13;46.65;;;;;;;-6.63;85.18;102677.44;1753571;80;26367;-68
2022/01/11 06:21:06;;;;;;;141.62;48.10;;;;;;;-6.60;85.25;102686.74;1757481;80;27359;-67
2022/01/11 06:23:32;;;;;;;139.40;46.20;;;;;;;-6.58;85.26;102684.72;1752235;80;99727;-67
2022/01/11 06:25:59;;;;;;;143.60;48.70;;;;;;;-6.55;85.25;102690.52;1747787;80;25774;-69
2022/01/11 06:28:27;;;;;;;151.90;49.53;;;;;;;-6.55;85.21;102694.44;1759325;80;99688;-70
2022/01/11 06:30:53;;;;;;;137.00;44.08;;;;;;;-6.56;85.21;102697.84;1754245;80;25906;-69
2022/01/11 06:33:19;;;;;;;153.47;49.08;;;;;;;-6.57;85.20;102706.48;1758925;80;27964;-69
2022/01/11 06:35:45;;;;;;;144.32;47.90;;;;;;;-6.58;85.17;102709.91;1761348;80;99361;-70
2022/01/11 06:38:14;;;;;;;155.25;49.45;;;;;;;-6.59;85.17;102715.52;1755560;80;30969;-68
2022/01/11 06:40:45;;;;;;;161.65;48.58;;;;;;;-6.59;85.19;102717.23;1754357;80;99443;-68
2022/01/11 06:43:12;;;;;;;156.40;52.58;;;;;;;-6.60;85.17;102731.98;1758251;80;25767;-68
2022/01/11 06:45:40;;;;;;;165.92;54.77;;;;;;;-6.63;85.16;102727.89;1756766;80;29421;-67
2022/01/11 06:48:08;;;;;;;161.50;53.87;;;;;;;-6.66;85.18;102729.01;1761366;80;99560;-67
2022/01/11 06:50:34;;;;;;;163.12;55.70;;;;;;;-6.62;85.19;102737.52;1757040;80;25797;-67
2022/01/11 06:53:00;;;;;;;160.75;51.33;;;;;;;-6.61;85.25;102732.79;1759364;80;99762;-67
2022/01/11 06:55:30;;;;;;;160.10;52.38;;;;;;;-6.58;85.24;102738.59;1758428;80;26590;-67
2022/01/11 06:57:59;;;;;;;166.68;52.15;;;;;;;-6.58;85.26;102742.50;1756671;80;29415;-67
2022/01/11 07:00:25;;;;;;;165.85;52.15;;;;;;;-6.61;85.20;102739.72;1752931;80;99458;-67
2022/01/11 07:02:51;;;;;;;151.55;52.48;;;;;;;-6.60;85.24;102748.94;1752016;80;25851;-66
2022/01/11 07:05:19;;;;;;;157.95;53.63;;;;;;;-6.60;85.23;102755.45;1755614;80;99555;-69
2022/01/11 07:07:45;;;;;;;172.50;53.70;;;;;;;-6.59;85.23;102755.05;1749839;80;25789;-70
2022/01/11 07:10:11;;;;;;;167.18;52.85;;;;;;;-6.58;85.27;102761.66;1749325;80;99753;-71
2022/01/11 07:12:39;;;;;;;168.55;52.98;;;;;;;-6.56;85.29;102763.06;1748953;80;33276;-67
2022/01/11 07:15:09;;;;;;;165.82;52.55;;;;;;;-6.57;85.27;102759.55;1742368;80;25782;-67
2022/01/11 07:17:36;;;;;;;171.70;54.33;;;;;;;-6.55;85.30;102764.45;1751076;80;99711;-67
2022/01/11 07:20:09;;;;;;;159.87;51.10;;;;;;;-6.53;85.31;102768.86;1757385;80;25948;-67
2022/01/11 07:22:37;;;;;;;169.65;55.10;;;;;;;-6.52;85.31;102768.05;1747437;80;99593;-68
2022/01/11 07:25:07;;;;;;;175.53;53.83;;;;;;;-6.50;85.38;102776.47;1757997;80;26438;-70
2022/01/11 07:27:35;;;;;;;170.43;55.75;;;;;;;-6.41;85.49;102786.14;1755090;80;25865;-68
2022/01/11 07:30:07;;;;;;;160.78;49.23;;;;;;;-6.33;85.51;102786.20;1747667;80;99640;-69
2022/01/11 07:32:36;;;;;;;172.50;57.03;;;;;;;-6.27;85.52;102776.52;1743385;80;25603;-71
2022/01/11 07:35:04;;;;;;;180.40;54.83;;;;;;;-6.22;85.47;102779.90;1740078;80;99263;-69
2022/01/11 07:37:30;;;;;;;179.87;54.45;;;;;;;-6.16;85.45;102781.97;1740321;80;25797;-68
2022/01/11 07:40:01;;;;;;;168.75;56.68;;;;;;;-6.09;85.51;102778.91;1741181;81;25837;-70
2022/01/11 07:42:29;;;;;;;160.72;49.65;;;;;;;-6.02;85.52;102774.94;1734848;81;99134;-68
2022/01/11 07:44:55;;;;;;;149.25;48.75;;;;;;;-5.96;85.48;102769.66;1738690;80;25873;-71
2022/01/11 07:47:25;;;;;;;157.12;52.60;;;;;;;-5.93;85.47;102768.94;1738795;80;99326;-69
2022/01/11 07:49:53;;;;;;;159.70;53.20;;;;;;;-5.91;85.47;102762.99;1736322;80;26485;-67
2022/01/11 07:52:19;;;;;;;157.60;52.85;;;;;;;-5.85;85.49;102766.33;1740486;80;99532;-67
2022/01/11 07:54:47;;;;;;;159.67;51.35;;;;;;;-5.77;85.61;102757.21;1743146;80;26231;-68
2022/01/11 07:57:14;;;;;;;159.52;54.88;;;;;;;-5.72;85.60;102750.95;1742547;80;26686;-70
2022/01/11 07:59:41;;;;;;;152.00;50.48;;;;;;;-5.60;85.69;102752.53;1742512;80;99215;-69
2022/01/11 08:02:10;;;;;;;159.12;50.48;;;;;;;-5.49;85.77;102747.00;1741535;80;25839;-69
2022/01/11 08:04:37;;;;;;;167.47;52.30;;;;;;;-5.39;85.77;102755.84;1735748;80;99685;-69
2022/01/11 08:07:03;;;;;;;153.40;48.50;;;;;;;-5.28;85.78;102753.41;1741156;81;35393;-69
2022/01/11 08:09:32;;;;;;;141.73;48.87;;;;;;;-5.20;85.77;102749.49;1743134;80;25246;-68
2022/01/11 08:11:59;;;;;;;133.20;47.17;;;;;;;-5.10;85.84;102763.52;1739403;80;98448;-68
2022/01/11 08:14:26;;;;;;;144.22;50.58;;;;;;;-5.03;85.82;102756.49;1738498;80;25767;-68
2022/01/11 08:16:55;;;;;;;156.18;51.53;;;;;;;-4.95;85.82;102760.42;1739781;80;99241;-68
2022/01/11 08:19:24;;;;;;;153.00;49.33;;;;;;;-4.86;85.90;102756.49;1745899;80;26525;-69
2022/01/11 08:21:49;;;;;;;139.10;52.13;;;;;;;-4.79;85.83;102763.84;1740513;80;25723;-68
2022/01/11 08:24:15;;;;;;;123.60;44.00;;;;;;;-4.75;85.84;102763.19;1736000;80;99545;-68
2022/01/11 08:26:44;;;;;;;156.65;53.80;;;;;;;-4.71;85.86;102769.07;1740171;80;33202;-69
2022/01/11 08:29:09;;;;;;;163.40;55.12;;;;;;;-4.70;85.84;102769.15;1741109;80;99188;-70
2022/01/11 08:31:39;;;;;;;158.10;55.30;;;;;;;-4.68;85.85;102770.54;1741858;80;34853;-69
2022/01/11 08:34:11;;;;;;;163.87;54.53;;;;;;;-4.62;85.94;102768.24;1754333;80;99643;-68
2022/01/11 08:36:35;;;;;;;173.72;54.58;;;;;;;-4.52;86.00;102781.40;1753662;80;29460;-66
2022/01/11 08:39:04;;;;;;;162.00;55.88;;;;;;;-4.47;85.97;102775.99;1730811;80;25906;-71
2022/01/11 08:41:32;;;;;;;169.45;58.38;;;;;;;-4.43;85.95;102781.46;1751331;80;99213;-68
2022/01/11 08:43:58;;;;;;;166.05;56.25;;;;;;;-4.37;86.01;102781.78;1750810;80;26870;-67
2022/01/11 08:46:25;;;;;;;164.80;58.13;;;;;;;-4.28;86.08;102779.63;1751098;80;99692;-67
2022/01/11 08:48:51;;;;;;;170.80;58.38;;;;;;;-4.21;86.09;102779.53;1752100;80;27403;-67
2022/01/11 08:51:19;;;;;;;174.25;57.55;;;;;;;-4.15;86.07;102782.46;1750130;80;26559;-68
2022/01/11 08:53:47;;;;;;;157.03;54.70;;;;;;;-4.08;86.06;102789.80;1752475;80;99306;-68
2022/01/11 08:56:17;;;;;;;159.82;57.98;;;;;;;-4.03;86.02;102796.17;1753087;80;25940;-68
2022/01/11 08:58:42;;;;;;;160.10;58.13;;;;;;;-3.98;86.07;102793.38;1747220;80;99656;-68
2022/01/11 09:01:12;;;;;;;155.25;53.35;;;;;;;-3.96;86.11;102786.91;1753740;80;27463;-67
2022/01/11 09:03:39;;;;;;;161.52;56.25;;;;;;;-3.84;86.07;102801.02;1754918;80;26264;-70
2022/01/11 09:06:08;;;;;;;162.35;57.45;;;;;;;-3.76;86.20;102804.50;1751437;80;98488;-70
2022/01/11 09:08:37;;;;;;;172.75;59.42;;;;;;;-3.69;86.18;102797.44;1748852;80;26954;-69
2022/01/11 09:11:05;;;;;;;185.67;61.37;;;;;;;-3.64;86.18;102801.17;1746961;80;99419;-67
2022/01/11 09:13:36;;;;;;;197.32;64.42;;;;;;;-3.54;86.25;102805.14;1747998;80;27392;-70
2022/01/11 09:16:04;;;;;;;196.23;67.70;;;;;;;-3.42;86.26;102807.45;1753630;80;26134;-68
2022/01/11 09:18:34;;;;;;;191.15;64.27;;;;;;;-3.32;86.24;102812.32;1743522;80;98832;-68
2022/01/11 09:21:03;;;;;;;212.95;62.43;;;;;;;-3.20;86.32;102819.45;1748907;80;25764;-68
2022/01/11 09:23:31;;;;;;;165.50;57.27;;;;;;;-3.11;86.27;102818.99;1750348;80;99246;-68
2022/01/11 09:25:59;;;;;;;157.03;50.10;;;;;;;-3.00;86.24;102819.98;1745418;80;28731;-68
2022/01/11 09:28:25;;;;;;;139.85;48.17;;;;;;;-2.96;86.19;102827.16;1746155;80;99296;-68
2022/01/11 09:30:55;;;;;;;156.60;51.98;;;;;;;-3.02;86.02;102826.87;1751575;80;26218;-67
2022/01/11 09:33:22;;;;;;;146.85;50.12;;;;;;;-3.14;85.89;102823.68;1751768;80;26109;-68
2022/01/11 09:35:49;;;;;;;138.57;49.18;;;;;;;-3.11;86.00;102818.99;1753185;80;99623;-66
2022/01/11 09:38:16;;;;;;;135.37;46.98;;;;;;;-3.07;86.03;102817.89;1752289;80;27482;-68
2022/01/11 09:40:42;;;;;;;120.42;43.63;;;;;;;-3.01;86.02;102816.87;1755456;80;99322;-67
2022/01/11 09:43:09;;;;;;;133.97;46.02;;;;;;;-2.97;86.02;102825.37;1753707;80;30407;-68
2022/01/11 09:45:37;;;;;;;141.65;49.30;;;;;;;-2.91;86.02;102823.44;1744072;80;26575;-68
2022/01/11 09:48:05;;;;;;;144.72;49.27;;;;;;;-2.87;86.00;102824.48;1747789;80;99394;-69
2022/01/11 09:50:33;;;;;;;137.77;49.33;;;;;;;-2.83;85.96;102823.80;1751888;80;27445;-67
2022/01/11 09:53:01;;;;;;;142.95;51.33;;;;;;;-2.79;85.95;102824.42;1748210;80;99184;-67
2022/01/11 09:55:28;;;;;;;132.37;51.80;;;;;;;-2.74;85.98;102828.16;1757193;80;25858;-69
2022/01/11 09:57:54;;;;;;;145.28;50.67;;;;;;;-2.71;85.93;102830.92;1755382;80;26814;-67
2022/01/11 10:00:20;;;;;;;139.57;53.40;;;;;;;-2.68;85.92;102825.81;1750965;80;99173;-71
2022/01/11 10:02:46;;;;;;;146.68;52.78;;;;;;;-2.63;85.93;102822.98;1750934;80;27429;-68
2022/01/11 10:05:14;;;;;;;123.18;47.90;;;;;;;-2.54;86.03;102819.42;1750077;80;99192;-68
2022/01/11 10:07:42;;;;;;;138.55;51.65;;;;;;;-2.45;85.99;102827.70;1758114;80;26405;-68
2022/01/11 10:10:21;;;;;;;144.30;52.20;;;;;;;-2.39;85.95;102823.14;1754234;80;25809;-67
2022/01/11 10:12:52;;;;;;;132.18;48.85;;;;;;;-2.32;85.98;102818.23;1750529;80;98885;-67
2022/01/11 10:15:32;;;;;;;138.05;49.95;;;;;;;-2.23;86.02;102818.14;1704901;82;27466;-71
2022/01/11 10:18:06;;;;;;;126.75;47.55;;;;;;;-2.16;85.97;102822.42;1745464;80;99095;-67
2022/01/11 10:20:35;;;;;;;106.22;41.37;;;;;;;-2.10;85.89;102830.98;1751991;80;25798;-69
2022/01/11 10:23:07;;;;;;;111.17;40.80;;;;;;;-2.06;85.91;102824.61;1750561;80;99266;-70
2022/01/11 10:25:51;;;;;;;108.00;42.33;;;;;;;-2.03;85.89;102827.37;1751421;80;25863;-67
2022/01/11 10:28:19;;;;;;;114.20;43.35;;;;;;;-2.00;85.89;102822.23;1748205;80;27631;-68
2022/01/11 10:30:47;;;;;;;105.30;42.03;;;;;;;-1.90;85.88;102818.69;1749185;80;98114;-68
2022/01/11 10:33:14;;;;;;;112.35;43.70;;;;;;;-1.83;85.92;102820.33;1745234;80;26457;-68
2022/01/11 10:35:44;;;;;;;136.43;49.70;;;;;;;-1.77;85.92;102823.63;1740180;80;99322;-68
2022/01/11 10:38:18;;;;;;;129.97;48.42;;;;;;;-1.74;85.83;102824.66;1738569;80;25826;-67
2022/01/11 10:40:47;;;;;;;150.00;48.60;;;;;;;-1.67;85.84;102827.12;1736655;80;99615;-67
2022/01/11 10:43:18;;;;;;;135.43;51.42;;;;;;;-1.66;85.77;102828.50;1737564;80;25793;-70
2022/01/11 10:45:51;;;;;;;138.18;48.68;;;;;;;-1.62;85.71;102821.63;1739692;80;25791;-67
2022/01/11 10:48:22;;;;;;;139.75;52.40;;;;;;;-1.54;85.71;102824.16;1738951;81;99396;-67
2022/01/11 10:50:54;;;;;;;135.45;51.35;;;;;;;-1.46;85.75;102816.16;1738385;80;25874;-67
2022/01/11 10:53:26;;;;;;;137.90;54.18;;;;;;;-1.36;85.75;102819.64;1739604;80;99380;-68
2022/01/11 10:55:57;;;;;;;142.82;50.70;;;;;;;-1.25;85.77;102813.91;1739861;80;26146;-69
2022/01/11 10:58:28;;;;;;;156.57;58.33;;;;;;;-1.15;85.76;102815.65;1738986;80;26609;-68
2022/01/11 11:00:56;;;;;;;160.32;62.55;;;;;;;-1.08;85.74;102811.10;1740178;80;99110;-68
2022/01/11 11:03:27;;;;;;;186.18;62.53;;;;;;;-1.02;85.78;102814.39;1739395;80;25370;-67
2022/01/11 11:06:07;;;;;;;169.35;64.95;;;;;;;-0.92;85.82;102818.27;1741807;80;99013;-65
2022/01/11 11:08:36;;;;;;;165.92;61.80;;;;;;;-0.87;85.77;102815.39;1739336;80;25752;-67